DW5766 Farmingdale NY US current weather conditions

sailwx.info

Wind from 283 at 4 knots gusting 12

Air temperature 6.1° C
Dewpoint 1.6° C

Last reported at 2019-Dec-15 13:01 UTC.
Time now 2019-Dec-15 14:00 UTC

Location: N 40°44' W 073°26'.
View on Google Maps.

See reports from other nearby stations

  
Tides and Currents Weather Stations Pressure Air Temp Water Temp Dewpoint Dewpoint Depression Visibility Wind Speed Wind Dir Waves Ship Positions
date/time (UTC)wind fromknots sea level pressurealtimeterstation pressurevisibilityair tempwater tempwave heightnotes
2019-Dec-15 13:01 283 4 gusting 12 6.1
2019-Dec-15 12:47 258 2 gusting 9 6.1
2019-Dec-15 12:32 276 1 gusting 9 6.1
2019-Dec-15 12:17 289 3 gusting 12 6.1
2019-Dec-15 12:01 245 2 gusting 13 6.1
2019-Dec-15 11:47 250 2 gusting 11 6.1
2019-Dec-15 11:31 239 4 gusting 10 5.6
2019-Dec-15 11:16 281 1 gusting 11 5.6
2019-Dec-15 11:01 278 0 gusting 6 6.1
2019-Dec-15 10:46 223 1 gusting 11 6.1
2019-Dec-15 10:30 257 1 gusting 7 6.1
2019-Dec-15 10:16 272 6.1
2019-Dec-15 10:01 276 1 gusting 8 6.1
2019-Dec-15 09:45 254 0 gusting 6 5.6
2019-Dec-15 09:30 257 3 gusting 10 5.6
2019-Dec-15 09:15 278 3 gusting 9 5.6
2019-Dec-15 09:00 243 1 gusting 9 6.1
2019-Dec-15 08:45 266 2 gusting 13 6.1
2019-Dec-15 08:32 250 1 gusting 12 6.1
2019-Dec-15 08:16 266 5 gusting 12 6.1
2019-Dec-15 08:02 300 2 gusting 13 6.1
2019-Dec-15 07:47 278 2 gusting 11 6.1
2019-Dec-15 07:32 266 4 gusting 14 6.1
2019-Dec-15 07:16 290 5 gusting 16 6.1
2019-Dec-15 07:01 299 5 gusting 11 6.1
2019-Dec-15 06:46 276 4 gusting 13 6.1
2019-Dec-15 06:30 295 4 gusting 11 6.7
2019-Dec-15 06:15 285 7 gusting 19 6.7
2019-Dec-15 06:00 257 4 gusting 14 6.7
2019-Dec-15 05:45 219 5 gusting 15 6.7
2019-Dec-15 05:30 250 4 gusting 15 6.7
2019-Dec-15 05:15 266 2 gusting 9 6.7
2019-Dec-15 05:00 212 4 gusting 9 7.2
2019-Dec-15 04:46 260 5 gusting 15 7.2
2019-Dec-15 04:30 284 1 gusting 7 7.2
2019-Dec-15 04:15 270 1 gusting 6 7.8
2019-Dec-15 04:00 247 5 gusting 14 7.8
2019-Dec-15 03:45 263 3 gusting 16 8.3
2019-Dec-15 03:31 316 3 gusting 9 8.3
2019-Dec-15 03:18 109 6 gusting 18 8.3
2019-Dec-15 03:01 289 2 gusting 15 8.9
2019-Dec-15 02:46 253 9 gusting 24 8.9
2019-Dec-15 02:32 283 3 gusting 13 8.9
2019-Dec-15 02:17 238 6 gusting 18 9.4
2019-Dec-15 02:02 194 6 gusting 15 9.4
2019-Dec-15 01:47 221 7 gusting 21 9.4
2019-Dec-15 01:32 235 6 gusting 18 9.4
2019-Dec-15 01:17 226 6 gusting 15 9.4
2019-Dec-15 01:01 264 5 gusting 14 9.4
2019-Dec-15 00:46 262 6 gusting 13 9.4
2019-Dec-15 00:31 223 6 gusting 17 9.4
2019-Dec-15 00:16 250 3 gusting 10 9.4
2019-Dec-15 00:01 140 6 gusting 16 10.0
2019-Dec-14 23:45 258 6 gusting 15 10.6
2019-Dec-14 23:31 276 5 gusting 12 10.6
2019-Dec-14 23:15 212 2 gusting 9 10.6
2019-Dec-14 23:01 261 4 gusting 11 11.1
2019-Dec-14 22:45 226 6 gusting 11 11.1
2019-Dec-14 22:30 200 4 gusting 11 11.1
2019-Dec-14 22:15 251 4 gusting 14 11.1
2019-Dec-14 22:00 172 4 gusting 13 11.1
2019-Dec-14 21:45 250 5 gusting 13 11.1
2019-Dec-14 21:30 116 5 gusting 9 11.1
2019-Dec-14 21:00 265 4 gusting 13 11.7
2019-Dec-14 20:45 268 6 gusting 15 11.7
2019-Dec-14 20:30 215 6 gusting 13 12.2
2019-Dec-14 20:17 149 4 gusting 13 12.2
2019-Dec-14 20:01 211 5 gusting 10 12.2
2019-Dec-14 19:47 120 4 gusting 11 12.2
2019-Dec-14 19:31 222 4 gusting 13 12.2
2019-Dec-14 19:16 156 5 gusting 13 12.2
2019-Dec-14 19:02 197 5 gusting 9 12.8
2019-Dec-14 18:46 207 2 gusting 5 12.8
2019-Dec-14 18:31 041 1 gusting 4 12.8
2019-Dec-14 18:16 207 0 gusting 6 13.3
2019-Dec-14 18:00 082 1 gusting 5 13.3
2019-Dec-14 17:46 236 0 gusting 5 13.3
2019-Dec-14 17:30 188 1 gusting 4 13.3
2019-Dec-14 17:15 229 13.3
2019-Dec-14 17:00 247 12.8
2019-Dec-14 16:45 242 12.8
2019-Dec-14 16:30 240 0 gusting 3 12.8
2019-Dec-14 16:02 172 2 gusting 5 12.8
2019-Dec-14 15:47 174 0 gusting 4 12.8
2019-Dec-14 15:31 256 0 gusting 4 12.8
2019-Dec-14 15:17 273 1 gusting 4 12.8
2019-Dec-14 15:01 249 0 gusting 5 12.8
2019-Dec-14 14:46 259 1 gusting 5 12.8
2019-Dec-14 14:32 245 0 gusting 2 12.2
2019-Dec-14 14:16 257 12.2
2019-Dec-14 14:01 257 12.2
2019-Dec-14 13:47 254 0 gusting 3 12.2
2019-Dec-14 13:31 238 1 gusting 6 12.8
2019-Dec-14 13:15 193 3 gusting 7 12.8
2019-Dec-14 13:02 124 2 gusting 8 12.8
2019-Dec-14 12:46 215 1 gusting 7 12.8
2019-Dec-14 12:31 207 4 gusting 11 12.8
2019-Dec-14 12:16 194 5 gusting 12 12.8
2019-Dec-14 12:01 186 4 gusting 10 12.8
2019-Dec-14 11:46 150 2 gusting 6 12.8
2019-Dec-14 11:30 181 2 gusting 12 13.3
2019-Dec-14 10:45 079 1 gusting 6 13.3
2019-Dec-14 10:30 201 3 gusting 6 13.3
2019-Dec-14 10:15 201 2 gusting 7 13.3
2019-Dec-14 10:00 034 1 gusting 9 13.3
2019-Dec-14 09:46 167 2 gusting 7 13.3
2019-Dec-14 09:30 164 4 gusting 9 13.3
2019-Dec-14 09:02 208 3 gusting 14 13.9
2019-Dec-14 08:47 208 5 gusting 15 13.9
2019-Dec-14 08:31 216 4 gusting 12 13.3
2019-Dec-14 08:16 093 4 gusting 13 13.3
2019-Dec-14 08:01 133 4 gusting 11 12.8
2019-Dec-14 07:46 255 1 gusting 9 12.8
2019-Dec-14 07:31 085 0 gusting 6 12.8
2019-Dec-14 07:16 099 0 gusting 6 12.2
2019-Dec-14 07:01 110 1 gusting 7 12.2
2019-Dec-14 06:46 038 2 gusting 9 12.2
2019-Dec-14 06:31 101 1 gusting 8 12.2
2019-Dec-14 06:15 328 2 gusting 8 12.2
2019-Dec-14 06:00 078 1 gusting 12 12.2
2019-Dec-14 05:45 221 5 gusting 13 12.2
2019-Dec-14 05:30 102 2 gusting 8 12.2
2019-Dec-14 05:15 249 1 gusting 9 12.2
2019-Dec-14 05:00 036 2 gusting 11 12.2
2019-Dec-14 04:45 138 4 gusting 10 11.7
2019-Dec-14 04:32 152 2 gusting 6 11.7
2019-Dec-14 04:17 116 3 gusting 8 11.7
2019-Dec-14 04:02 077 3 gusting 10 11.7
2019-Dec-14 03:46 245 2 gusting 6 11.7
2019-Dec-14 03:31 240 2 gusting 9 11.7
2019-Dec-14 03:16 120 3 gusting 6 11.7
2019-Dec-14 03:01 097 3 gusting 7 11.7
2019-Dec-14 02:47 330 0 gusting 8 11.7
2019-Dec-14 02:32 321 2 gusting 8 11.1
2019-Dec-14 02:17 131 3 gusting 8 11.1
2019-Dec-14 02:01 145 3 gusting 10 11.1
2019-Dec-14 01:46 344 3 gusting 9 11.1
2019-Dec-14 01:30 105 2 gusting 8 11.1
2019-Dec-14 01:16 238 1 gusting 8 11.1
2019-Dec-14 01:00 356 2 gusting 8 11.1
2019-Dec-14 00:45 216 2 gusting 6 11.1
2019-Dec-14 00:30 060 2 gusting 8 10.6
2019-Dec-14 00:15 109 1 gusting 6 10.6
2019-Dec-14 00:00 068 10.0
2019-Dec-13 23:45 338 9.4
2019-Dec-13 23:32 318 8.9
2019-Dec-13 23:16 330 8.9
2019-Dec-13 23:02 337 8.9
2019-Dec-13 22:48 321 8.9
2019-Dec-13 22:32 331 8.3
2019-Dec-13 22:16 351 0 gusting 2 8.3
2019-Dec-13 22:01 316 8.3
2019-Dec-13 21:47 337 7.8
2019-Dec-13 21:31 307 7.8
2019-Dec-13 21:16 338 7.8
2019-Dec-13 21:03 306 7.2
2019-Dec-13 20:46 342 7.2
2019-Dec-13 20:31 344 7.8
2019-Dec-13 20:16 347 7.8
2019-Dec-13 20:01 331 7.8
2019-Dec-13 19:47 304 8.3
2019-Dec-13 19:32 332 8.9
2019-Dec-13 19:16 346 9.4
2019-Dec-13 19:00 351 9.4
2019-Dec-13 18:47 323 9.4
2019-Dec-13 18:30 299 9.4
2019-Dec-13 18:16 309 9.4
2019-Dec-13 18:01 300 9.4
2019-Dec-13 17:45 300 9.4
2019-Dec-13 17:15 122 9.4
2019-Dec-13 17:02 113 9.4
2019-Dec-13 16:48 289 8.9
2019-Dec-13 16:31 289 8.9
2019-Dec-13 16:17 106 8.9
2019-Dec-13 16:01 153 8.9
2019-Dec-13 15:48 157 8.3
2019-Dec-13 15:32 122 8.3
2019-Dec-13 15:16 157 7.8
2019-Dec-13 15:01 289 7.2
2019-Dec-13 14:46 289 7.2
2019-Dec-13 14:30 050 6.7
2019-Dec-13 14:15 254 5.6
2019-Dec-13 14:00 288 4.4